sensor_id;sensor_type;location;lat;lon;timestamp;P1;durP1;ratioP1;P2;durP2;ratioP2
24335;SDS011;33098;52.400;16.880;2023-03-31T00:00:56;6.20;;;4.30;;
24335;SDS011;33098;52.400;16.880;2023-03-31T00:03:23;8.50;;;4.00;;
24335;SDS011;33098;52.400;16.880;2023-03-31T00:05:54;8.00;;;4.10;;
24335;SDS011;33098;52.400;16.880;2023-03-31T00:08:31;8.50;;;4.40;;
24335;SDS011;33098;52.400;16.880;2023-03-31T00:11:02;7.30;;;4.40;;
24335;SDS011;33098;52.400;16.880;2023-03-31T00:13:30;6.50;;;4.30;;
24335;SDS011;33098;52.400;16.880;2023-03-31T00:15:59;9.40;;;4.30;;
24335;SDS011;33098;52.400;16.880;2023-03-31T00:18:28;6.40;;;4.10;;
24335;SDS011;33098;52.400;16.880;2023-03-31T00:21:09;7.20;;;4.60;;
24335;SDS011;33098;52.400;16.880;2023-03-31T00:23:52;7.50;;;4.10;;
24335;SDS011;33098;52.400;16.880;2023-03-31T00:26:21;6.60;;;4.10;;
24335;SDS011;33098;52.400;16.880;2023-03-31T00:28:49;6.30;;;4.10;;
24335;SDS011;33098;52.400;16.880;2023-03-31T00:31:20;7.90;;;4.70;;
24335;SDS011;33098;52.400;16.880;2023-03-31T00:33:48;5.50;;;3.70;;
24335;SDS011;33098;52.400;16.880;2023-03-31T00:36:16;7.70;;;4.30;;
24335;SDS011;33098;52.400;16.880;2023-03-31T00:38:47;6.60;;;4.10;;
24335;SDS011;33098;52.400;16.880;2023-03-31T00:41:14;7.90;;;4.40;;
24335;SDS011;33098;52.400;16.880;2023-03-31T00:43:58;5.00;;;4.30;;
24335;SDS011;33098;52.400;16.880;2023-03-31T00:46:42;6.30;;;4.40;;
24335;SDS011;33098;52.400;16.880;2023-03-31T00:49:17;8.80;;;4.30;;
24335;SDS011;33098;52.400;16.880;2023-03-31T00:52:06;6.30;;;4.50;;
24335;SDS011;33098;52.400;16.880;2023-03-31T00:55:10;7.40;;;4.70;;
24335;SDS011;33098;52.400;16.880;2023-03-31T00:57:42;8.40;;;4.70;;
24335;SDS011;33098;52.400;16.880;2023-03-31T01:00:14;7.10;;;4.90;;
24335;SDS011;33098;52.400;16.880;2023-03-31T01:02:54;7.80;;;4.60;;
24335;SDS011;33098;52.400;16.880;2023-03-31T01:05:25;7.60;;;5.00;;
24335;SDS011;33098;52.400;16.880;2023-03-31T01:08:05;5.70;;;4.70;;
24335;SDS011;33098;52.400;16.880;2023-03-31T01:10:33;7.10;;;4.40;;
24335;SDS011;33098;52.400;16.880;2023-03-31T01:13:10;6.20;;;4.20;;
24335;SDS011;33098;52.400;16.880;2023-03-31T01:15:48;7.30;;;4.40;;
24335;SDS011;33098;52.400;16.880;2023-03-31T01:18:16;6.30;;;4.60;;
24335;SDS011;33098;52.400;16.880;2023-03-31T01:41:19;7.10;;;4.50;;
24335;SDS011;33098;52.400;16.880;2023-03-31T01:44:00;9.30;;;4.70;;
24335;SDS011;33098;52.400;16.880;2023-03-31T01:46:52;10.80;;;4.50;;
24335;SDS011;33098;52.400;16.880;2023-03-31T01:49:22;7.40;;;4.40;;
24335;SDS011;33098;52.400;16.880;2023-03-31T01:52:17;8.80;;;4.60;;
24335;SDS011;33098;52.400;16.880;2023-03-31T01:55:08;8.50;;;4.30;;
24335;SDS011;33098;52.400;16.880;2023-03-31T01:57:49;9.00;;;4.60;;
24335;SDS011;33098;52.400;16.880;2023-03-31T02:00:30;6.50;;;4.00;;
24335;SDS011;33098;52.400;16.880;2023-03-31T02:03:13;7.60;;;4.30;;
24335;SDS011;33098;52.400;16.880;2023-03-31T02:05:55;5.30;;;3.80;;
24335;SDS011;33098;52.400;16.880;2023-03-31T02:08:26;8.10;;;4.30;;
24335;SDS011;33098;52.400;16.880;2023-03-31T02:11:02;6.40;;;3.90;;
24335;SDS011;33098;52.400;16.880;2023-03-31T02:13:29;7.60;;;4.10;;
24335;SDS011;33098;52.400;16.880;2023-03-31T02:16:02;7.20;;;4.50;;
24335;SDS011;33098;52.400;16.880;2023-03-31T02:18:42;6.40;;;3.90;;
24335;SDS011;33098;52.400;16.880;2023-03-31T02:21:10;5.90;;;4.10;;
24335;SDS011;33098;52.400;16.880;2023-03-31T02:23:43;6.40;;;4.10;;
24335;SDS011;33098;52.400;16.880;2023-03-31T02:26:13;7.30;;;4.00;;
24335;SDS011;33098;52.400;16.880;2023-03-31T02:28:48;6.10;;;3.80;;
24335;SDS011;33098;52.400;16.880;2023-03-31T02:34:06;7.30;;;3.90;;
24335;SDS011;33098;52.400;16.880;2023-03-31T02:36:39;5.10;;;3.80;;
24335;SDS011;33098;52.400;16.880;2023-03-31T02:39:17;5.30;;;3.70;;
24335;SDS011;33098;52.400;16.880;2023-03-31T02:41:52;6.50;;;4.00;;
24335;SDS011;33098;52.400;16.880;2023-03-31T02:44:19;4.90;;;3.70;;
24335;SDS011;33098;52.400;16.880;2023-03-31T02:46:46;6.30;;;3.70;;
24335;SDS011;33098;52.400;16.880;2023-03-31T02:49:16;6.80;;;3.80;;
24335;SDS011;33098;52.400;16.880;2023-03-31T03:00:05;5.40;;;3.50;;
24335;SDS011;33098;52.400;16.880;2023-03-31T03:13:45;5.60;;;3.40;;
24335;SDS011;33098;52.400;16.880;2023-03-31T03:16:18;7.60;;;3.30;;
24335;SDS011;33098;52.400;16.880;2023-03-31T03:19:03;4.70;;;3.30;;
24335;SDS011;33098;52.400;16.880;2023-03-31T03:21:34;6.10;;;3.40;;
24335;SDS011;33098;52.400;16.880;2023-03-31T03:24:01;6.10;;;3.20;;
24335;SDS011;33098;52.400;16.880;2023-03-31T03:26:28;6.30;;;3.50;;
24335;SDS011;33098;52.400;16.880;2023-03-31T03:28:55;6.20;;;3.60;;
24335;SDS011;33098;52.400;16.880;2023-03-31T03:31:25;5.60;;;3.40;;
24335;SDS011;33098;52.400;16.880;2023-03-31T03:33:52;4.50;;;3.20;;
24335;SDS011;33098;52.400;16.880;2023-03-31T03:36:22;4.70;;;3.30;;
24335;SDS011;33098;52.400;16.880;2023-03-31T03:38:51;6.00;;;3.10;;
24335;SDS011;33098;52.400;16.880;2023-03-31T03:41:23;5.40;;;3.20;;
24335;SDS011;33098;52.400;16.880;2023-03-31T03:43:50;5.20;;;3.30;;
24335;SDS011;33098;52.400;16.880;2023-03-31T03:46:17;5.80;;;3.30;;
24335;SDS011;33098;52.400;16.880;2023-03-31T03:48:44;6.40;;;3.40;;
24335;SDS011;33098;52.400;16.880;2023-03-31T03:51:14;7.30;;;3.10;;
24335;SDS011;33098;52.400;16.880;2023-03-31T03:53:48;5.50;;;3.20;;
24335;SDS011;33098;52.400;16.880;2023-03-31T03:56:15;6.30;;;3.50;;
24335;SDS011;33098;52.400;16.880;2023-03-31T03:58:44;5.70;;;3.30;;
24335;SDS011;33098;52.400;16.880;2023-03-31T04:01:11;6.00;;;3.00;;
24335;SDS011;33098;52.400;16.880;2023-03-31T04:03:41;6.60;;;3.40;;
24335;SDS011;33098;52.400;16.880;2023-03-31T04:06:08;6.80;;;3.50;;
24335;SDS011;33098;52.400;16.880;2023-03-31T04:08:37;4.30;;;3.10;;
24335;SDS011;33098;52.400;16.880;2023-03-31T04:11:09;6.10;;;3.40;;
24335;SDS011;33098;52.400;16.880;2023-03-31T04:13:45;5.70;;;3.60;;
24335;SDS011;33098;52.400;16.880;2023-03-31T04:16:15;6.00;;;3.20;;
24335;SDS011;33098;52.400;16.880;2023-03-31T04:18:43;6.70;;;3.40;;
24335;SDS011;33098;52.400;16.880;2023-03-31T04:21:11;6.20;;;3.50;;
24335;SDS011;33098;52.400;16.880;2023-03-31T04:23:51;6.30;;;3.30;;
24335;SDS011;33098;52.400;16.880;2023-03-31T04:26:34;8.80;;;3.60;;
24335;SDS011;33098;52.400;16.880;2023-03-31T04:29:09;9.50;;;4.20;;
24335;SDS011;33098;52.400;16.880;2023-03-31T04:31:38;5.80;;;3.70;;
24335;SDS011;33098;52.400;16.880;2023-03-31T04:34:11;6.30;;;3.70;;
24335;SDS011;33098;52.400;16.880;2023-03-31T04:36:45;7.00;;;3.90;;
24335;SDS011;33098;52.400;16.880;2023-03-31T04:39:15;5.70;;;3.20;;
24335;SDS011;33098;52.400;16.880;2023-03-31T04:41:52;4.60;;;3.50;;
24335;SDS011;33098;52.400;16.880;2023-03-31T04:44:19;5.90;;;3.40;;
24335;SDS011;33098;52.400;16.880;2023-03-31T04:46:48;5.60;;;3.10;;
24335;SDS011;33098;52.400;16.880;2023-03-31T04:49:15;7.00;;;3.40;;
24335;SDS011;33098;52.400;16.880;2023-03-31T04:51:45;9.20;;;3.30;;
24335;SDS011;33098;52.400;16.880;2023-03-31T04:54:14;6.00;;;3.10;;
24335;SDS011;33098;52.400;16.880;2023-03-31T04:56:44;4.20;;;3.20;;
24335;SDS011;33098;52.400;16.880;2023-03-31T04:59:14;7.00;;;3.00;;
24335;SDS011;33098;52.400;16.880;2023-03-31T05:01:41;6.10;;;3.00;;
24335;SDS011;33098;52.400;16.880;2023-03-31T05:04:10;6.60;;;3.40;;
24335;SDS011;33098;52.400;16.880;2023-03-31T05:06:40;6.10;;;3.10;;
24335;SDS011;33098;52.400;16.880;2023-03-31T05:09:07;6.30;;;3.00;;
24335;SDS011;33098;52.400;16.880;2023-03-31T05:11:35;6.40;;;3.10;;
24335;SDS011;33098;52.400;16.880;2023-03-31T05:14:06;7.50;;;3.30;;
24335;SDS011;33098;52.400;16.880;2023-03-31T05:16:33;4.70;;;3.00;;
24335;SDS011;33098;52.400;16.880;2023-03-31T05:19:10;6.00;;;2.70;;
24335;SDS011;33098;52.400;16.880;2023-03-31T05:21:40;9.00;;;3.00;;
24335;SDS011;33098;52.400;16.880;2023-03-31T05:24:07;7.40;;;3.20;;
24335;SDS011;33098;52.400;16.880;2023-03-31T05:26:35;5.60;;;2.90;;
24335;SDS011;33098;52.400;16.880;2023-03-31T05:29:06;6.40;;;3.00;;
24335;SDS011;33098;52.400;16.880;2023-03-31T05:31:33;5.40;;;3.10;;
24335;SDS011;33098;52.400;16.880;2023-03-31T05:34:03;4.80;;;3.00;;
24335;SDS011;33098;52.400;16.880;2023-03-31T05:36:29;5.60;;;3.40;;
24335;SDS011;33098;52.400;16.880;2023-03-31T05:38:57;9.00;;;3.60;;
24335;SDS011;33098;52.400;16.880;2023-03-31T05:41:27;5.50;;;3.20;;
24335;SDS011;33098;52.400;16.880;2023-03-31T05:43:57;6.10;;;3.50;;
24335;SDS011;33098;52.400;16.880;2023-03-31T05:46:24;6.70;;;3.40;;
24335;SDS011;33098;52.400;16.880;2023-03-31T05:48:53;6.20;;;3.30;;
24335;SDS011;33098;52.400;16.880;2023-03-31T05:51:22;7.90;;;3.40;;
24335;SDS011;33098;52.400;16.880;2023-03-31T05:53:49;5.80;;;3.40;;
24335;SDS011;33098;52.400;16.880;2023-03-31T05:56:16;6.50;;;3.60;;
24335;SDS011;33098;52.400;16.880;2023-03-31T05:58:46;9.50;;;3.50;;
24335;SDS011;33098;52.400;16.880;2023-03-31T06:01:14;6.80;;;3.60;;
24335;SDS011;33098;52.400;16.880;2023-03-31T06:03:48;7.50;;;3.20;;
24335;SDS011;33098;52.400;16.880;2023-03-31T06:06:15;7.60;;;3.20;;
24335;SDS011;33098;52.400;16.880;2023-03-31T06:08:46;8.00;;;3.10;;
24335;SDS011;33098;52.400;16.880;2023-03-31T06:11:15;6.00;;;3.40;;
24335;SDS011;33098;52.400;16.880;2023-03-31T06:13:48;6.40;;;3.50;;
24335;SDS011;33098;52.400;16.880;2023-03-31T06:16:15;8.20;;;3.40;;
24335;SDS011;33098;52.400;16.880;2023-03-31T06:18:43;6.90;;;3.40;;
24335;SDS011;33098;52.400;16.880;2023-03-31T06:21:12;5.80;;;3.50;;
24335;SDS011;33098;52.400;16.880;2023-03-31T06:23:42;7.40;;;3.50;;
24335;SDS011;33098;52.400;16.880;2023-03-31T06:26:11;6.60;;;3.40;;
24335;SDS011;33098;52.400;16.880;2023-03-31T06:28:42;7.40;;;3.10;;
24335;SDS011;33098;52.400;16.880;2023-03-31T06:31:10;6.90;;;3.20;;
24335;SDS011;33098;52.400;16.880;2023-03-31T06:33:42;5.20;;;3.20;;
24335;SDS011;33098;52.400;16.880;2023-03-31T06:36:12;5.30;;;2.80;;
24335;SDS011;33098;52.400;16.880;2023-03-31T06:38:41;7.20;;;3.20;;
24335;SDS011;33098;52.400;16.880;2023-03-31T06:41:16;5.50;;;3.00;;
24335;SDS011;33098;52.400;16.880;2023-03-31T06:43:44;6.10;;;3.00;;
24335;SDS011;33098;52.400;16.880;2023-03-31T06:46:15;7.00;;;3.40;;
24335;SDS011;33098;52.400;16.880;2023-03-31T06:48:44;6.30;;;3.30;;
24335;SDS011;33098;52.400;16.880;2023-03-31T06:51:11;6.50;;;3.60;;
24335;SDS011;33098;52.400;16.880;2023-03-31T06:53:39;5.50;;;3.70;;
24335;SDS011;33098;52.400;16.880;2023-03-31T06:56:08;5.80;;;3.50;;
24335;SDS011;33098;52.400;16.880;2023-03-31T06:58:39;6.00;;;3.50;;
24335;SDS011;33098;52.400;16.880;2023-03-31T07:01:06;6.80;;;3.30;;
24335;SDS011;33098;52.400;16.880;2023-03-31T07:03:33;5.90;;;3.00;;
24335;SDS011;33098;52.400;16.880;2023-03-31T07:06:05;8.50;;;3.80;;
24335;SDS011;33098;52.400;16.880;2023-03-31T07:08:32;5.20;;;3.00;;
24335;SDS011;33098;52.400;16.880;2023-03-31T07:11:00;6.70;;;3.40;;
24335;SDS011;33098;52.400;16.880;2023-03-31T07:13:28;7.20;;;3.60;;
24335;SDS011;33098;52.400;16.880;2023-03-31T07:15:56;7.70;;;3.50;;
24335;SDS011;33098;52.400;16.880;2023-03-31T07:18:26;6.80;;;3.70;;
24335;SDS011;33098;52.400;16.880;2023-03-31T07:20:58;8.70;;;3.80;;
24335;SDS011;33098;52.400;16.880;2023-03-31T07:23:31;6.60;;;3.70;;
24335;SDS011;33098;52.400;16.880;2023-03-31T07:26:01;7.50;;;3.30;;
24335;SDS011;33098;52.400;16.880;2023-03-31T07:28:28;6.40;;;3.50;;
24335;SDS011;33098;52.400;16.880;2023-03-31T07:30:55;6.00;;;3.80;;
24335;SDS011;33098;52.400;16.880;2023-03-31T07:33:22;8.90;;;3.70;;
24335;SDS011;33098;52.400;16.880;2023-03-31T07:35:52;6.70;;;3.80;;
24335;SDS011;33098;52.400;16.880;2023-03-31T07:38:24;6.80;;;3.20;;
24335;SDS011;33098;52.400;16.880;2023-03-31T07:40:51;6.80;;;3.20;;
24335;SDS011;33098;52.400;16.880;2023-03-31T07:43:18;6.60;;;3.50;;
24335;SDS011;33098;52.400;16.880;2023-03-31T07:45:50;6.50;;;3.20;;
24335;SDS011;33098;52.400;16.880;2023-03-31T07:48:20;6.70;;;3.40;;
24335;SDS011;33098;52.400;16.880;2023-03-31T07:50:51;7.40;;;3.60;;
24335;SDS011;33098;52.400;16.880;2023-03-31T07:53:26;6.60;;;3.30;;
24335;SDS011;33098;52.400;16.880;2023-03-31T07:55:54;6.90;;;3.70;;
24335;SDS011;33098;52.400;16.880;2023-03-31T07:58:26;6.10;;;3.00;;
24335;SDS011;33098;52.400;16.880;2023-03-31T08:00:53;5.50;;;3.40;;
24335;SDS011;33098;52.400;16.880;2023-03-31T08:03:21;9.40;;;3.90;;
24335;SDS011;33098;52.400;16.880;2023-03-31T08:05:51;6.80;;;3.30;;
24335;SDS011;33098;52.400;16.880;2023-03-31T08:08:19;5.70;;;2.90;;
24335;SDS011;33098;52.400;16.880;2023-03-31T08:10:49;6.40;;;3.30;;
24335;SDS011;33098;52.400;16.880;2023-03-31T08:13:17;7.80;;;3.10;;
24335;SDS011;33098;52.400;16.880;2023-03-31T08:15:46;6.50;;;3.10;;
24335;SDS011;33098;52.400;16.880;2023-03-31T08:18:13;5.40;;;3.00;;
24335;SDS011;33098;52.400;16.880;2023-03-31T08:20:43;7.70;;;3.10;;
24335;SDS011;33098;52.400;16.880;2023-03-31T08:23:12;6.20;;;3.30;;
24335;SDS011;33098;52.400;16.880;2023-03-31T08:25:39;5.10;;;2.90;;
24335;SDS011;33098;52.400;16.880;2023-03-31T08:28:06;6.40;;;3.40;;
24335;SDS011;33098;52.400;16.880;2023-03-31T08:30:36;6.50;;;3.30;;
24335;SDS011;33098;52.400;16.880;2023-03-31T08:33:04;7.90;;;2.90;;
24335;SDS011;33098;52.400;16.880;2023-03-31T08:35:38;7.90;;;3.40;;
24335;SDS011;33098;52.400;16.880;2023-03-31T08:38:06;5.80;;;3.10;;
24335;SDS011;33098;52.400;16.880;2023-03-31T08:40:33;6.60;;;3.00;;
24335;SDS011;33098;52.400;16.880;2023-03-31T08:43:10;7.50;;;3.50;;
24335;SDS011;33098;52.400;16.880;2023-03-31T08:45:42;7.50;;;3.20;;
24335;SDS011;33098;52.400;16.880;2023-03-31T08:50:53;8.50;;;3.10;;
24335;SDS011;33098;52.400;16.880;2023-03-31T08:53:30;8.40;;;3.70;;
24335;SDS011;33098;52.400;16.880;2023-03-31T08:56:08;8.10;;;3.20;;
24335;SDS011;33098;52.400;16.880;2023-03-31T08:58:43;7.60;;;3.20;;
24335;SDS011;33098;52.400;16.880;2023-03-31T09:04:14;8.00;;;3.50;;
24335;SDS011;33098;52.400;16.880;2023-03-31T09:09:56;8.30;;;3.40;;
24335;SDS011;33098;52.400;16.880;2023-03-31T09:17:52;7.10;;;3.10;;
24335;SDS011;33098;52.400;16.880;2023-03-31T09:20:29;7.20;;;3.10;;
24335;SDS011;33098;52.400;16.880;2023-03-31T09:23:01;8.40;;;3.00;;
24335;SDS011;33098;52.400;16.880;2023-03-31T09:25:38;5.50;;;3.00;;
24335;SDS011;33098;52.400;16.880;2023-03-31T09:28:13;5.40;;;3.00;;
24335;SDS011;33098;52.400;16.880;2023-03-31T09:30:54;7.60;;;3.40;;
24335;SDS011;33098;52.400;16.880;2023-03-31T09:33:26;6.40;;;3.20;;
24335;SDS011;33098;52.400;16.880;2023-03-31T09:35:58;4.70;;;2.90;;
24335;SDS011;33098;52.400;16.880;2023-03-31T09:38:29;7.10;;;3.20;;
24335;SDS011;33098;52.400;16.880;2023-03-31T09:40:56;6.60;;;3.50;;
24335;SDS011;33098;52.400;16.880;2023-03-31T09:43:26;9.60;;;3.60;;
24335;SDS011;33098;52.400;16.880;2023-03-31T09:45:55;7.50;;;2.90;;
24335;SDS011;33098;52.400;16.880;2023-03-31T09:48:28;7.30;;;2.70;;
24335;SDS011;33098;52.400;16.880;2023-03-31T09:51:25;7.10;;;3.30;;
24335;SDS011;33098;52.400;16.880;2023-03-31T09:56:57;8.00;;;2.90;;
24335;SDS011;33098;52.400;16.880;2023-03-31T09:59:31;6.70;;;3.00;;
24335;SDS011;33098;52.400;16.880;2023-03-31T10:05:18;6.70;;;2.60;;
24335;SDS011;33098;52.400;16.880;2023-03-31T10:10:46;5.00;;;2.60;;
24335;SDS011;33098;52.400;16.880;2023-03-31T10:16:09;10.20;;;3.20;;
24335;SDS011;33098;52.400;16.880;2023-03-31T10:18:40;5.70;;;2.90;;
24335;SDS011;33098;52.400;16.880;2023-03-31T10:24:18;7.40;;;2.80;;
24335;SDS011;33098;52.400;16.880;2023-03-31T10:26:47;6.50;;;2.50;;
24335;SDS011;33098;52.400;16.880;2023-03-31T10:29:17;8.50;;;2.50;;
24335;SDS011;33098;52.400;16.880;2023-03-31T10:32:17;8.40;;;2.70;;
24335;SDS011;33098;52.400;16.880;2023-03-31T10:34:46;8.20;;;2.80;;
24335;SDS011;33098;52.400;16.880;2023-03-31T10:37:15;6.70;;;2.50;;
24335;SDS011;33098;52.400;16.880;2023-03-31T10:39:45;7.20;;;2.80;;
24335;SDS011;33098;52.400;16.880;2023-03-31T10:42:18;6.90;;;2.80;;
24335;SDS011;33098;52.400;16.880;2023-03-31T10:44:51;5.20;;;2.40;;
24335;SDS011;33098;52.400;16.880;2023-03-31T10:47:41;6.10;;;2.80;;
24335;SDS011;33098;52.400;16.880;2023-03-31T10:50:24;7.90;;;2.90;;
24335;SDS011;33098;52.400;16.880;2023-03-31T10:53:01;7.60;;;3.00;;
24335;SDS011;33098;52.400;16.880;2023-03-31T10:55:34;4.60;;;2.80;;
24335;SDS011;33098;52.400;16.880;2023-03-31T11:01:09;8.40;;;3.40;;
24335;SDS011;33098;52.400;16.880;2023-03-31T11:17:43;10.50;;;3.30;;
24335;SDS011;33098;52.400;16.880;2023-03-31T11:20:49;6.40;;;2.90;;
24335;SDS011;33098;52.400;16.880;2023-03-31T11:26:01;8.40;;;2.60;;
24335;SDS011;33098;52.400;16.880;2023-03-31T11:28:39;9.40;;;3.60;;
24335;SDS011;33098;52.400;16.880;2023-03-31T11:39:46;7.10;;;3.20;;
24335;SDS011;33098;52.400;16.880;2023-03-31T11:42:16;9.50;;;3.40;;
24335;SDS011;33098;52.400;16.880;2023-03-31T11:44:52;6.90;;;3.30;;
24335;SDS011;33098;52.400;16.880;2023-03-31T11:47:27;6.90;;;3.80;;
24335;SDS011;33098;52.400;16.880;2023-03-31T11:50:01;8.60;;;3.30;;
24335;SDS011;33098;52.400;16.880;2023-03-31T11:52:38;8.00;;;3.40;;
24335;SDS011;33098;52.400;16.880;2023-03-31T11:58:04;9.10;;;3.50;;
24335;SDS011;33098;52.400;16.880;2023-03-31T12:00:41;6.20;;;3.30;;
24335;SDS011;33098;52.400;16.880;2023-03-31T12:06:03;6.70;;;3.40;;
24335;SDS011;33098;52.400;16.880;2023-03-31T12:14:30;6.50;;;3.10;;
24335;SDS011;33098;52.400;16.880;2023-03-31T12:17:03;8.10;;;3.40;;
24335;SDS011;33098;52.400;16.880;2023-03-31T12:22:14;9.60;;;3.50;;
24335;SDS011;33098;52.400;16.880;2023-03-31T12:25:07;7.30;;;3.30;;
24335;SDS011;33098;52.400;16.880;2023-03-31T12:27:41;6.40;;;2.90;;
24335;SDS011;33098;52.400;16.880;2023-03-31T12:30:17;7.10;;;3.60;;
24335;SDS011;33098;52.400;16.880;2023-03-31T12:32:57;7.70;;;2.90;;
24335;SDS011;33098;52.400;16.880;2023-03-31T12:35:42;7.30;;;3.30;;
24335;SDS011;33098;52.400;16.880;2023-03-31T12:38:28;4.20;;;2.40;;
24335;SDS011;33098;52.400;16.880;2023-03-31T12:49:33;6.10;;;3.00;;
24335;SDS011;33098;52.400;16.880;2023-03-31T12:54:56;7.20;;;3.40;;
24335;SDS011;33098;52.400;16.880;2023-03-31T12:57:35;6.10;;;3.00;;
24335;SDS011;33098;52.400;16.880;2023-03-31T13:02:38;5.30;;;3.40;;
24335;SDS011;33098;52.400;16.880;2023-03-31T13:16:41;6.40;;;3.90;;
24335;SDS011;33098;52.400;16.880;2023-03-31T13:19:10;6.70;;;4.10;;
24335;SDS011;33098;52.400;16.880;2023-03-31T13:21:52;7.70;;;3.90;;
24335;SDS011;33098;52.400;16.880;2023-03-31T13:24:24;7.00;;;4.30;;
24335;SDS011;33098;52.400;16.880;2023-03-31T13:26:52;8.60;;;4.20;;
24335;SDS011;33098;52.400;16.880;2023-03-31T13:29:43;10.40;;;4.50;;
24335;SDS011;33098;52.400;16.880;2023-03-31T13:32:22;9.60;;;4.20;;
24335;SDS011;33098;52.400;16.880;2023-03-31T13:38:07;9.10;;;4.80;;
24335;SDS011;33098;52.400;16.880;2023-03-31T13:43:39;7.40;;;4.30;;
24335;SDS011;33098;52.400;16.880;2023-03-31T13:52:08;7.30;;;4.50;;
24335;SDS011;33098;52.400;16.880;2023-03-31T14:08:52;8.80;;;4.80;;
24335;SDS011;33098;52.400;16.880;2023-03-31T14:11:27;10.30;;;5.50;;
24335;SDS011;33098;52.400;16.880;2023-03-31T14:14:02;9.50;;;4.70;;
24335;SDS011;33098;52.400;16.880;2023-03-31T14:16:37;9.50;;;5.10;;
24335;SDS011;33098;52.400;16.880;2023-03-31T14:19:20;8.70;;;4.80;;
24335;SDS011;33098;52.400;16.880;2023-03-31T14:21:56;9.50;;;4.60;;
24335;SDS011;33098;52.400;16.880;2023-03-31T14:24:36;7.20;;;4.40;;
24335;SDS011;33098;52.400;16.880;2023-03-31T14:28:16;8.20;;;4.70;;
24335;SDS011;33098;52.400;16.880;2023-03-31T14:30:36;11.40;;;5.10;;
24335;SDS011;33098;52.400;16.880;2023-03-31T14:33:15;11.40;;;6.30;;
24335;SDS011;33098;52.400;16.880;2023-03-31T14:38:47;11.50;;;8.00;;
24335;SDS011;33098;52.400;16.880;2023-03-31T14:41:15;14.20;;;9.50;;
24335;SDS011;33098;52.400;16.880;2023-03-31T14:43:49;14.30;;;8.40;;
24335;SDS011;33098;52.400;16.880;2023-03-31T14:46:19;13.70;;;8.60;;
24335;SDS011;33098;52.400;16.880;2023-03-31T14:48:48;12.00;;;8.00;;
24335;SDS011;33098;52.400;16.880;2023-03-31T14:51:17;14.20;;;8.50;;
24335;SDS011;33098;52.400;16.880;2023-03-31T14:53:56;13.90;;;7.80;;
24335;SDS011;33098;52.400;16.880;2023-03-31T14:56:26;9.20;;;6.00;;
24335;SDS011;33098;52.400;16.880;2023-03-31T14:59:06;8.80;;;5.40;;
24335;SDS011;33098;52.400;16.880;2023-03-31T15:01:34;13.80;;;6.30;;
24335;SDS011;33098;52.400;16.880;2023-03-31T15:04:09;10.30;;;5.70;;
24335;SDS011;33098;52.400;16.880;2023-03-31T15:06:45;10.20;;;5.70;;
24335;SDS011;33098;52.400;16.880;2023-03-31T15:09:33;10.40;;;5.30;;
24335;SDS011;33098;52.400;16.880;2023-03-31T15:12:07;9.60;;;6.00;;
24335;SDS011;33098;52.400;16.880;2023-03-31T15:14:45;11.10;;;6.20;;
24335;SDS011;33098;52.400;16.880;2023-03-31T15:17:22;10.50;;;6.40;;
24335;SDS011;33098;52.400;16.880;2023-03-31T15:19:53;12.10;;;6.30;;
24335;SDS011;33098;52.400;16.880;2023-03-31T15:22:23;10.30;;;7.00;;
24335;SDS011;33098;52.400;16.880;2023-03-31T15:24:56;11.80;;;8.00;;
24335;SDS011;33098;52.400;16.880;2023-03-31T15:30:13;13.20;;;8.20;;
24335;SDS011;33098;52.400;16.880;2023-03-31T15:32:44;14.80;;;9.30;;
24335;SDS011;33098;52.400;16.880;2023-03-31T15:35:24;16.70;;;10.60;;
24335;SDS011;33098;52.400;16.880;2023-03-31T15:37:55;14.80;;;10.00;;
24335;SDS011;33098;52.400;16.880;2023-03-31T15:40:58;14.60;;;10.10;;
24335;SDS011;33098;52.400;16.880;2023-03-31T15:43:30;15.10;;;10.20;;
24335;SDS011;33098;52.400;16.880;2023-03-31T15:46:03;15.00;;;10.10;;
24335;SDS011;33098;52.400;16.880;2023-03-31T15:48:35;18.00;;;10.20;;
24335;SDS011;33098;52.400;16.880;2023-03-31T15:51:27;17.30;;;9.90;;
24335;SDS011;33098;52.400;16.880;2023-03-31T15:54:39;12.50;;;9.60;;
24335;SDS011;33098;52.400;16.880;2023-03-31T15:57:07;15.90;;;11.30;;
24335;SDS011;33098;52.400;16.880;2023-03-31T15:59:44;17.10;;;12.00;;
24335;SDS011;33098;52.400;16.880;2023-03-31T16:02:21;19.10;;;11.90;;
24335;SDS011;33098;52.400;16.880;2023-03-31T16:04:53;17.50;;;11.20;;
24335;SDS011;33098;52.400;16.880;2023-03-31T16:07:27;19.50;;;12.20;;
24335;SDS011;33098;52.400;16.880;2023-03-31T16:10:04;20.50;;;13.30;;
24335;SDS011;33098;52.400;16.880;2023-03-31T16:15:11;17.20;;;12.10;;
24335;SDS011;33098;52.400;16.880;2023-03-31T16:17:46;20.70;;;10.90;;
24335;SDS011;33098;52.400;16.880;2023-03-31T16:20:25;19.10;;;13.20;;
24335;SDS011;33098;52.400;16.880;2023-03-31T16:23:00;18.70;;;13.00;;
24335;SDS011;33098;52.400;16.880;2023-03-31T16:25:44;20.70;;;13.20;;
24335;SDS011;33098;52.400;16.880;2023-03-31T16:28:13;21.70;;;14.30;;
24335;SDS011;33098;52.400;16.880;2023-03-31T16:30:43;23.90;;;14.90;;
24335;SDS011;33098;52.400;16.880;2023-03-31T16:33:18;20.80;;;14.30;;
24335;SDS011;33098;52.400;16.880;2023-03-31T16:35:53;19.50;;;12.60;;
24335;SDS011;33098;52.400;16.880;2023-03-31T16:38:25;11.40;;;8.60;;
24335;SDS011;33098;52.400;16.880;2023-03-31T16:40:55;10.60;;;7.00;;
24335;SDS011;33098;52.400;16.880;2023-03-31T16:43:27;10.80;;;6.70;;
24335;SDS011;33098;52.400;16.880;2023-03-31T16:46:00;8.40;;;5.90;;
24335;SDS011;33098;52.400;16.880;2023-03-31T16:48:32;9.70;;;5.60;;
24335;SDS011;33098;52.400;16.880;2023-03-31T16:50:59;7.30;;;5.10;;
24335;SDS011;33098;52.400;16.880;2023-03-31T16:53:31;9.00;;;5.90;;
24335;SDS011;33098;52.400;16.880;2023-03-31T16:56:02;8.30;;;5.40;;
24335;SDS011;33098;52.400;16.880;2023-03-31T16:58:33;8.70;;;5.80;;
24335;SDS011;33098;52.400;16.880;2023-03-31T17:01:13;7.90;;;6.00;;
24335;SDS011;33098;52.400;16.880;2023-03-31T17:03:43;7.10;;;5.30;;
24335;SDS011;33098;52.400;16.880;2023-03-31T17:06:11;8.00;;;4.60;;
24335;SDS011;33098;52.400;16.880;2023-03-31T17:08:39;6.90;;;4.40;;
24335;SDS011;33098;52.400;16.880;2023-03-31T17:11:09;6.00;;;4.20;;
24335;SDS011;33098;52.400;16.880;2023-03-31T17:13:41;7.10;;;4.50;;
24335;SDS011;33098;52.400;16.880;2023-03-31T17:16:10;9.00;;;4.70;;
24335;SDS011;33098;52.400;16.880;2023-03-31T17:18:37;7.40;;;4.80;;
24335;SDS011;33098;52.400;16.880;2023-03-31T17:21:09;10.10;;;5.20;;
24335;SDS011;33098;52.400;16.880;2023-03-31T17:23:40;10.90;;;6.00;;
24335;SDS011;33098;52.400;16.880;2023-03-31T17:26:09;8.50;;;6.00;;
24335;SDS011;33098;52.400;16.880;2023-03-31T17:28:42;8.90;;;6.00;;
24335;SDS011;33098;52.400;16.880;2023-03-31T17:31:10;8.90;;;5.70;;
24335;SDS011;33098;52.400;16.880;2023-03-31T17:33:45;8.00;;;5.40;;
24335;SDS011;33098;52.400;16.880;2023-03-31T17:36:18;10.50;;;5.70;;
24335;SDS011;33098;52.400;16.880;2023-03-31T17:38:47;9.30;;;6.00;;
24335;SDS011;33098;52.400;16.880;2023-03-31T17:41:15;8.30;;;5.70;;
24335;SDS011;33098;52.400;16.880;2023-03-31T17:43:44;9.10;;;5.60;;
24335;SDS011;33098;52.400;16.880;2023-03-31T17:46:12;7.80;;;5.60;;
24335;SDS011;33098;52.400;16.880;2023-03-31T17:48:40;9.10;;;5.70;;
24335;SDS011;33098;52.400;16.880;2023-03-31T17:51:30;9.70;;;6.00;;
24335;SDS011;33098;52.400;16.880;2023-03-31T17:53:59;11.40;;;7.40;;
24335;SDS011;33098;52.400;16.880;2023-03-31T17:56:32;9.50;;;6.10;;
24335;SDS011;33098;52.400;16.880;2023-03-31T17:59:00;10.50;;;5.90;;